メインページ
METAR-TAF:

METAR-TAF

空港 :

ブルネイ, ブルネイ

ブルネイ国際空港

緯度: 04-56N, 経度: 114-56E, 海抜: 22m

現時点の気象観測

当レポートは34分前の23:00(UTC)に作成
南/南西の風 2kt
気温 26°C
湿度 94%
気圧 1010 hPa
視程: 7000m
高度1500ftの雲はほとんどない
高度14000ftの千切れ雲あり

METAR: WBSB 232300Z 20002KT 7000 FEW015 BKN140 26/25 Q1010 NOSIG

時間: 07:34 (23:34 UTC)

予報

当レポートは6時間34分前の17:00(UTC)に作成
予報は23日の 18時(UTC)から 25日の 00時(UTC)まで有効
の風 4kt
視程: 8000m
高度1400ftの雲はほとんどない
高度14000ftの千切れ雲あり
24日の 03時(UTC)から 24日の 05時(UTC)まで徐々に
の風 10kt
高度1600ftの雲はほとんどない

TAF: WBSB 231700Z 2318/2500 17004KT 8000 FEW014 BKN140 BECMG 2403/2405 36010KT FEW016

4,000以上の空港の気象観測と天気予報(METAR報とTAF報)

利用可能な観測所は地図上に黄色い丸と赤い丸で示す。

丸の上にカーソルを重ねると観測所名を参照できる。

次にクリックすると気象観測と天気予報を参照できる。

マップの切り替え:黒色「×」印の緑ボタンをクリックして拡大、「-」印の緑ボタンをクリックして縮小、緑色の三角印をクリックして隣りの地図に切り替え


METAR-TAF: